createdAt,value
2017-06-03T00:00:59.351Z,0
2017-06-03T00:01:59.374Z,0
2017-06-03T00:03:13.707Z,0
2017-06-03T00:04:59.442Z,0
2017-06-03T00:07:14.110Z,0
2017-06-03T00:07:59.519Z,0
2017-06-03T00:08:59.288Z,0
2017-06-03T00:09:59.260Z,0
2017-06-03T00:11:13.908Z,0
2017-06-03T00:11:59.615Z,0
2017-06-03T00:12:59.640Z,0
2017-06-03T00:13:59.662Z,0
2017-06-03T00:14:59.689Z,0
2017-06-03T00:15:59.711Z,0
2017-06-03T00:16:59.731Z,0
2017-06-03T00:18:14.376Z,0
2017-06-03T00:19:59.805Z,0
2017-06-03T00:21:14.748Z,0
2017-06-03T00:21:59.852Z,0
2017-06-03T00:22:59.878Z,0
2017-06-03T00:23:59.900Z,0
2017-06-03T00:24:59.924Z,0
2017-06-03T00:25:59.950Z,0
2017-06-03T00:26:59.973Z,0
2017-06-03T00:27:59.997Z,0
2017-06-03T00:29:00.026Z,0
2017-06-03T00:30:00.045Z,0
2017-06-03T00:31:00.076Z,0
2017-06-03T00:32:14.712Z,0
2017-06-03T00:33:00.118Z,0
2017-06-03T00:34:00.149Z,0
2017-06-03T00:37:00.225Z,0
2017-06-03T00:38:00.240Z,0
2017-06-03T00:39:14.882Z,0
2017-06-03T00:42:00.334Z,0
2017-06-03T00:43:00.359Z,0
2017-06-03T00:44:00.381Z,0
2017-06-03T00:45:00.406Z,0
2017-06-03T00:46:00.433Z,0
2017-06-03T00:47:15.072Z,0
2017-06-03T00:48:00.477Z,0
2017-06-03T00:49:15.118Z,0
2017-06-03T00:49:59.919Z,0
2017-06-03T00:51:00.247Z,0
2017-06-03T00:52:15.189Z,0
2017-06-03T00:53:00.291Z,0
2017-06-03T00:54:00.621Z,0
2017-06-03T00:55:15.261Z,0
2017-06-03T00:56:00.667Z,0
2017-06-03T00:57:00.696Z,0
2017-06-03T00:58:00.715Z,0
2017-06-03T00:59:00.739Z,0
2017-06-03T01:00:00.761Z,0
2017-06-03T01:01:00.786Z,0
2017-06-03T01:02:00.813Z,0
2017-06-03T01:03:00.835Z,0
2017-06-03T01:04:00.857Z,0
2017-06-03T01:05:15.501Z,0
2017-06-03T01:06:15.222Z,0
2017-06-03T01:07:15.247Z,0
2017-06-03T01:08:15.265Z,0
2017-06-03T01:09:00.990Z,0
2017-06-03T01:10:00.696Z,0
2017-06-03T01:11:15.640Z,0
2017-06-03T01:12:01.051Z,0
2017-06-03T01:13:01.069Z,0
2017-06-03T01:14:01.095Z,0
2017-06-03T01:15:01.119Z,0
2017-06-03T01:16:01.143Z,0
2017-06-03T01:17:01.164Z,0
2017-06-03T01:18:00.889Z,0
2017-06-03T01:19:01.213Z,0
2017-06-03T01:20:15.853Z,0
2017-06-03T01:22:01.285Z,0
2017-06-03T01:23:15.923Z,0
2017-06-03T01:24:15.948Z,0
2017-06-03T01:25:01.352Z,0
2017-06-03T01:26:01.377Z,0
2017-06-03T01:27:15.768Z,0
2017-06-03T01:28:01.423Z,0
2017-06-03T01:29:01.446Z,0
2017-06-03T01:30:01.475Z,0
2017-06-03T01:31:01.190Z,0
2017-06-03T01:32:01.533Z,0
2017-06-03T01:33:01.540Z,0
2017-06-03T01:34:01.565Z,0
2017-06-03T01:35:01.589Z,0
2017-06-03T01:36:01.312Z,0
2017-06-03T01:37:01.330Z,0
2017-06-03T01:38:01.762Z,0
2017-06-03T01:39:15.999Z,0
2017-06-03T01:40:01.402Z,0
2017-06-03T01:41:01.734Z,0
2017-06-03T01:42:16.371Z,0
2017-06-03T01:43:01.831Z,0
2017-06-03T01:44:01.801Z,0
2017-06-03T01:45:01.824Z,0
2017-06-03T01:46:01.849Z,0
2017-06-03T01:47:01.872Z,0
2017-06-03T01:48:01.892Z,0
2017-06-03T01:49:01.918Z,0
2017-06-03T01:50:01.944Z,0
2017-06-03T01:51:16.614Z,0
2017-06-03T01:52:01.987Z,0
2017-06-03T01:53:02.064Z,0
2017-06-03T01:54:02.036Z,0
2017-06-03T01:57:02.113Z,4
2017-06-03T01:58:02.131Z,4
2017-06-03T01:59:02.152Z,0
2017-06-03T02:01:02.202Z,0
2017-06-03T02:02:01.917Z,4
2017-06-03T02:03:02.245Z,4
2017-06-03T02:04:01.963Z,0
2017-06-03T02:05:02.294Z,4
2017-06-03T02:06:02.313Z,4
2017-06-03T02:07:02.037Z,8
2017-06-03T02:08:16.978Z,4
2017-06-03T02:09:02.081Z,8
2017-06-03T02:10:02.110Z,4
2017-06-03T02:11:17.047Z,4
2017-06-03T02:12:02.455Z,8
2017-06-03T02:13:02.174Z,12
2017-06-03T02:14:17.166Z,12
2017-06-03T02:15:02.530Z,8
2017-06-03T02:17:02.574Z,16
2017-06-03T02:18:02.595Z,16
2017-06-03T02:19:02.617Z,16
2017-06-03T02:20:02.644Z,20
2017-06-03T02:21:02.661Z,24
2017-06-03T02:22:17.304Z,28
2017-06-03T02:23:02.711Z,28
2017-06-03T02:24:17.349Z,32
2017-06-03T02:26:17.398Z,40
2017-06-03T02:27:17.420Z,48
2017-06-03T02:28:17.137Z,52
2017-06-03T02:29:02.903Z,56
2017-06-03T02:30:17.189Z,68
2017-06-03T02:31:02.896Z,72
2017-06-03T02:32:02.924Z,80
2017-06-03T02:33:02.944Z,92
2017-06-03T02:34:02.965Z,104
2017-06-03T02:35:02.686Z,116
2017-06-03T02:36:03.008Z,120
2017-06-03T02:37:17.651Z,128
2017-06-03T02:38:03.061Z,132
2017-06-03T02:39:03.082Z,136
2017-06-03T02:40:17.719Z,144
2017-06-03T02:43:03.169Z,176
2017-06-03T02:44:03.194Z,184
2017-06-03T02:45:03.223Z,196
2017-06-03T02:46:17.553Z,212
2017-06-03T02:47:03.265Z,224
2017-06-03T02:48:03.285Z,244
2017-06-03T02:49:03.361Z,260
2017-06-03T02:50:03.329Z,280
2017-06-03T02:51:03.356Z,304
2017-06-03T02:52:17.694Z,336
2017-06-03T02:53:03.401Z,356
2017-06-03T02:54:03.120Z,384
2017-06-03T02:55:03.451Z,420
2017-06-03T02:56:18.086Z,456
2017-06-03T02:57:03.493Z,480
2017-06-03T02:58:18.132Z,516
2017-06-03T02:59:18.155Z,548
2017-06-03T03:00:18.178Z,584
2017-06-03T03:01:03.582Z,612
2017-06-03T03:02:18.225Z,664
2017-06-03T03:03:03.630Z,700
2017-06-03T03:04:03.657Z,748
2017-06-03T03:05:03.709Z,800
2017-06-03T03:06:03.697Z,860
2017-06-03T03:07:03.722Z,928
2017-06-03T03:08:18.063Z,1012
2017-06-03T03:09:03.767Z,1060
2017-06-03T03:10:03.792Z,1124
2017-06-03T03:11:18.433Z,1204
2017-06-03T03:12:03.835Z,1244
2017-06-03T03:14:03.884Z,1312
2017-06-03T03:15:18.525Z,1360
2017-06-03T03:16:03.934Z,1400
2017-06-03T03:17:18.571Z,1480
2017-06-03T03:20:03.719Z,1672
2017-06-03T03:21:04.047Z,1740
2017-06-03T03:22:04.071Z,1784
2017-06-03T03:23:04.093Z,1816
2017-06-03T03:24:04.114Z,1824
2017-06-03T03:25:04.138Z,1828
2017-06-03T03:26:18.778Z,1840
2017-06-03T03:27:03.882Z,1868
2017-06-03T03:28:04.209Z,1932
2017-06-03T03:29:04.229Z,2024
2017-06-03T03:30:04.252Z,2152
2017-06-03T03:31:04.283Z,2308
2017-06-03T03:32:04.299Z,2484
2017-06-03T03:33:04.323Z,2652
2017-06-03T03:34:04.342Z,2804
2017-06-03T03:35:04.370Z,2944
2017-06-03T03:36:04.095Z,3068
2017-06-03T03:37:04.416Z,3196
2017-06-03T03:38:04.459Z,3348
2017-06-03T03:39:04.463Z,4200
2017-06-03T03:40:04.484Z,6492
2017-06-03T03:41:04.508Z,8652
2017-06-03T03:42:04.530Z,7568
2017-06-03T03:43:19.170Z,6340
2017-06-03T03:44:04.274Z,5464
2017-06-03T03:45:04.296Z,5860
2017-06-03T03:46:04.624Z,4468
2017-06-03T03:47:04.342Z,4716
2017-06-03T03:48:04.668Z,4460
2017-06-03T03:49:19.007Z,4276
2017-06-03T03:50:04.719Z,4360
2017-06-03T03:51:04.739Z,5000
2017-06-03T03:52:04.763Z,4788
2017-06-03T03:53:04.788Z,4712
2017-06-03T03:54:04.507Z,4728
2017-06-03T03:55:04.835Z,4760
2017-06-03T03:56:04.859Z,4872
2017-06-03T03:57:04.882Z,4968
2017-06-03T03:59:04.626Z,5256
2017-06-03T04:00:04.653Z,5340
2017-06-03T04:01:04.977Z,5428
2017-06-03T04:03:05.019Z,5628
2017-06-03T04:04:05.049Z,5664
2017-06-03T04:05:19.687Z,5756
2017-06-03T04:06:05.094Z,5948
2017-06-03T04:07:05.113Z,6172
2017-06-03T04:08:05.135Z,6464
2017-06-03T04:09:04.859Z,11640
2017-06-03T04:10:04.879Z,30272
2017-06-03T04:11:05.206Z,37888
2017-06-03T04:12:05.230Z,37952
2017-06-03T04:13:05.253Z,38112
2017-06-03T04:14:05.282Z,39456
2017-06-03T04:17:05.352Z,23168
2017-06-03T04:18:19.994Z,27264
2017-06-03T04:19:05.404Z,27680
2017-06-03T04:20:05.430Z,32672
2017-06-03T04:21:20.084Z,39104
2017-06-03T04:22:05.478Z,36448
2017-06-03T04:23:05.505Z,37888
2017-06-03T04:24:05.535Z,46208
2017-06-03T04:25:05.256Z,49120
2017-06-03T04:26:05.277Z,50112
2017-06-03T04:27:05.609Z,50912
2017-06-03T04:28:05.342Z,50048
2017-06-03T04:29:05.662Z,49984
2017-06-03T04:30:05.383Z,49824
2017-06-03T04:31:05.715Z,52448
2017-06-03T04:32:05.745Z,54880
2017-06-03T04:33:05.464Z,55488
2017-06-03T04:34:05.796Z,52032
2017-06-03T04:35:05.558Z,52864
2017-06-03T04:36:05.853Z,54336
2017-06-03T04:37:20.499Z,57536
2017-06-03T04:39:05.938Z,57280
2017-06-03T04:40:05.965Z,56768
2017-06-03T04:41:05.994Z,56672
2017-06-03T04:42:06.025Z,57760
2017-06-03T04:43:06.053Z,57312
2017-06-03T04:44:06.084Z,55680
2017-06-03T04:45:05.809Z,54400
2017-06-03T04:46:06.145Z,55296
2017-06-03T04:47:06.172Z,56384
2017-06-03T04:48:06.203Z,58208
2017-06-03T04:49:20.850Z,59456
2017-06-03T04:50:20.880Z,58624
2017-06-03T04:51:06.294Z,61600
2017-06-03T04:52:20.639Z,61792
2017-06-03T04:53:06.052Z,60736
2017-06-03T04:54:06.386Z,65440
2017-06-03T04:55:06.418Z,65440
2017-06-03T04:56:06.448Z,61408
2017-06-03T04:57:06.175Z,59616
2017-06-03T04:58:06.511Z,63648
2017-06-03T04:59:21.163Z,63520
2017-06-03T05:00:06.574Z,66464
2017-06-03T05:01:20.922Z,68000
2017-06-03T05:02:21.256Z,68384
2017-06-03T05:03:06.671Z,69696
2017-06-03T05:04:21.321Z,70880
2017-06-03T05:05:06.736Z,70848
2017-06-03T05:06:06.766Z,72160
2017-06-03T05:07:06.798Z,69984
2017-06-03T05:08:06.833Z,69632
2017-06-03T05:09:06.867Z,71776
2017-06-03T05:10:06.897Z,73184
2017-06-03T05:11:06.934Z,72352
2017-06-03T05:12:06.965Z,75904
2017-06-03T05:13:06.997Z,76032
2017-06-03T05:14:07.032Z,74336
2017-06-03T05:15:07.066Z,76192
2017-06-03T05:16:07.095Z,75776
2017-06-03T05:17:07.131Z,76096
2017-06-03T05:18:07.166Z,73280
2017-06-03T05:19:07.205Z,72800
2017-06-03T05:20:07.232Z,79584
2017-06-03T05:22:06.998Z,78880
2017-06-03T05:23:07.334Z,83424
2017-06-03T05:24:21.682Z,83296
2017-06-03T05:25:07.098Z,83008
2017-06-03T05:26:07.438Z,83968
2017-06-03T05:27:07.469Z,84256
2017-06-03T05:28:07.507Z,64128
2017-06-03T05:29:07.544Z,71296
2017-06-03T05:30:07.571Z,80384
2017-06-03T05:31:07.610Z,77792
2017-06-03T05:32:22.263Z,79680
2017-06-03T05:33:07.675Z,78688
2017-06-03T05:34:07.406Z,77536
2017-06-03T05:36:22.402Z,83456
2017-06-03T05:37:07.822Z,83360
2017-06-03T05:38:22.489Z,85440
2017-06-03T05:39:07.883Z,86624
2017-06-03T05:40:22.585Z,85984
2017-06-03T05:41:07.956Z,84928
2017-06-03T05:43:08.075Z,83872
2017-06-03T05:44:08.062Z,82048
2017-06-03T05:45:08.096Z,81152
2017-06-03T05:46:07.826Z,84320
2017-06-03T05:47:08.166Z,88960
2017-06-03T05:48:08.199Z,88416
2017-06-03T05:49:08.233Z,85600
2017-06-03T05:50:22.889Z,86848
2017-06-03T05:51:22.924Z,87264
2017-06-03T05:52:22.663Z,86784
2017-06-03T05:54:08.467Z,87456
2017-06-03T05:55:08.148Z,87296
2017-06-03T05:56:23.129Z,86880
2017-06-03T05:57:08.527Z,86912
2017-06-03T05:58:08.556Z,87360
2017-06-03T05:59:23.235Z,86112
2017-06-03T06:00:08.628Z,85568
2017-06-03T06:01:08.664Z,86240
2017-06-03T06:02:08.703Z,89312
2017-06-03T06:03:08.739Z,90464
2017-06-03T06:04:23.643Z,87136
2017-06-03T06:05:08.809Z,85504
2017-06-03T06:06:23.464Z,84768
2017-06-03T06:07:08.882Z,85984
2017-06-03T06:08:23.232Z,85120
2017-06-03T06:09:08.987Z,85152
2017-06-03T06:12:23.684Z,84544
2017-06-03T06:13:09.101Z,87680
2017-06-03T06:14:08.832Z,86752
2017-06-03T06:15:09.172Z,84608
2017-06-03T06:16:08.904Z,84320
2017-06-03T06:17:23.563Z,88416
2017-06-03T06:18:08.979Z,86688
2017-06-03T06:19:09.325Z,86400
2017-06-03T06:20:09.358Z,86912
2017-06-03T06:21:24.013Z,85856
2017-06-03T06:22:09.426Z,85152
2017-06-03T06:23:09.461Z,83424
2017-06-03T06:24:09.195Z,81696
2017-06-03T06:25:09.546Z,81344
2017-06-03T06:27:24.235Z,81120
2017-06-03T06:28:09.349Z,79904
2017-06-03T06:29:09.720Z,82464
2017-06-03T06:30:09.723Z,84000
2017-06-03T06:31:09.759Z,81856
2017-06-03T06:32:09.489Z,80800
2017-06-03T06:33:09.873Z,82624
2017-06-03T06:34:24.487Z,83392
2017-06-03T06:35:24.525Z,79840
2017-06-03T06:36:09.943Z,76032
2017-06-03T06:37:09.975Z,71808
2017-06-03T06:38:10.013Z,72384
2017-06-03T06:39:10.101Z,76128
2017-06-03T06:40:09.785Z,78464
2017-06-03T06:41:10.122Z,78304
2017-06-03T06:42:09.859Z,79520
2017-06-03T06:43:09.892Z,79168
2017-06-03T06:44:10.234Z,77664
2017-06-03T06:45:10.271Z,76160
2017-06-03T06:46:10.004Z,77632
2017-06-03T06:47:10.368Z,78816
2017-06-03T06:48:10.382Z,77024
2017-06-03T06:49:10.419Z,73056
2017-06-03T06:50:10.456Z,73312
2017-06-03T06:51:10.492Z,75488
2017-06-03T06:52:10.230Z,75040
2017-06-03T06:53:10.567Z,72640
2017-06-03T06:54:10.299Z,73568
2017-06-03T06:55:25.261Z,73312
2017-06-03T06:56:10.676Z,70880
2017-06-03T06:57:10.713Z,69664
2017-06-03T06:58:10.755Z,70976
2017-06-03T06:59:25.418Z,72512
2017-06-03T07:00:10.924Z,73408
2017-06-03T07:01:10.863Z,65152
2017-06-03T07:02:10.899Z,64992
2017-06-03T07:03:10.990Z,65504
2017-06-03T07:04:10.978Z,64576
2017-06-03T07:05:11.015Z,61856
2017-06-03T07:06:11.049Z,55424
2017-06-03T07:07:11.084Z,51200
2017-06-03T07:08:11.123Z,48544
2017-06-03T07:09:25.785Z,61792
2017-06-03T07:10:10.893Z,59424
2017-06-03T07:11:11.235Z,60992
2017-06-03T07:12:11.271Z,64096
2017-06-03T07:13:11.306Z,64544
2017-06-03T07:14:11.345Z,65120
2017-06-03T07:15:26.000Z,63680
2017-06-03T07:16:11.419Z,62816
2017-06-03T07:17:11.454Z,65760
2017-06-03T07:18:11.487Z,64224
2017-06-03T07:19:11.221Z,59936
2017-06-03T07:20:11.259Z,59872
2017-06-03T07:21:11.299Z,60640
2017-06-03T07:22:11.335Z,58976
2017-06-03T07:23:26.293Z,57984
2017-06-03T07:24:26.329Z,54976
2017-06-03T07:25:11.748Z,54080
2017-06-03T07:26:11.485Z,49408
2017-06-03T07:27:11.817Z,52736
2017-06-03T07:29:11.892Z,47040
2017-06-03T07:31:26.582Z,54368
2017-06-03T07:32:11.695Z,56992
2017-06-03T07:33:12.040Z,56608
2017-06-03T07:34:12.072Z,37056
2017-06-03T07:35:12.106Z,41024
2017-06-03T07:36:12.143Z,37088
2017-06-03T07:37:12.182Z,32352
2017-06-03T07:38:12.248Z,39520
2017-06-03T07:39:12.252Z,40960
2017-06-03T07:40:12.289Z,25152
2017-06-03T07:41:12.332Z,23904
2017-06-03T07:42:12.411Z,23040
2017-06-03T07:43:27.015Z,22560
2017-06-03T07:45:12.466Z,22496
2017-06-03T07:46:12.196Z,23104
2017-06-03T07:47:26.855Z,25760
2017-06-03T07:48:12.275Z,31392
2017-06-03T07:50:12.034Z,26432
2017-06-03T07:51:12.679Z,29632
2017-06-03T07:52:12.716Z,36640
2017-06-03T07:53:12.744Z,59264
2017-06-03T07:54:12.783Z,58976
2017-06-03T07:55:12.817Z,55072
2017-06-03T07:56:26.860Z,29184
2017-06-03T07:57:12.881Z,33408
2017-06-03T07:58:27.536Z,31904
2017-06-03T08:00:13.039Z,30560
2017-06-03T08:01:13.021Z,34400
2017-06-03T08:02:27.676Z,38080
2017-06-03T08:03:13.091Z,42816
2017-06-03T08:05:13.162Z,28896
2017-06-03T08:06:13.201Z,34112
2017-06-03T08:07:13.236Z,27072
2017-06-03T08:08:13.286Z,22720
2017-06-03T08:09:13.300Z,23040
2017-06-03T08:10:13.331Z,24896
2017-06-03T08:11:13.369Z,26784
2017-06-03T08:13:13.435Z,26400
2017-06-03T08:14:13.522Z,22976
2017-06-03T08:15:28.130Z,24512
2017-06-03T08:16:13.538Z,23456
2017-06-03T08:17:13.576Z,29152
2017-06-03T08:18:13.607Z,25952
2017-06-03T08:20:13.372Z,29536
2017-06-03T08:21:13.708Z,28896
2017-06-03T08:22:13.742Z,28896
2017-06-03T08:23:13.776Z,27648
2017-06-03T08:24:13.808Z,28832
2017-06-03T08:25:13.847Z,28800
2017-06-03T08:26:13.271Z,30528
2017-06-03T08:27:13.913Z,27776
2017-06-03T08:28:13.950Z,29120
2017-06-03T08:29:28.603Z,28736
2017-06-03T08:30:28.687Z,29184
2017-06-03T08:31:14.060Z,29696
2017-06-03T08:32:14.090Z,25120
2017-06-03T08:33:14.122Z,29184
2017-06-03T08:34:28.801Z,24224
2017-06-03T08:36:14.230Z,23648
2017-06-03T08:37:13.961Z,29248
2017-06-03T08:38:14.300Z,25312
2017-06-03T08:39:14.334Z,24960
2017-06-03T08:40:14.068Z,23488
2017-06-03T08:41:14.105Z,26944
2017-06-03T08:42:14.136Z,26560
2017-06-03T08:43:14.169Z,26240
2017-06-03T08:44:14.208Z,25760
2017-06-03T08:45:14.545Z,23456
2017-06-03T08:46:14.283Z,26208
2017-06-03T08:47:14.313Z,27744
2017-06-03T08:48:14.351Z,26752
2017-06-03T08:49:14.684Z,26656
2017-06-03T08:50:29.340Z,26016
2017-06-03T08:51:14.456Z,25632
2017-06-03T08:52:14.791Z,25280
2017-06-03T08:54:14.859Z,23232
2017-06-03T08:55:14.894Z,23264
2017-06-03T08:56:14.938Z,23072
2017-06-03T08:57:14.966Z,22816
2017-06-03T08:58:14.999Z,22016
2017-06-03T08:59:15.035Z,21472
2017-06-03T09:00:29.741Z,21152
2017-06-03T09:01:15.110Z,21120
2017-06-03T09:02:15.143Z,21152
2017-06-03T09:03:29.795Z,21824
2017-06-03T09:04:29.829Z,22240
2017-06-03T09:05:15.245Z,22368
2017-06-03T09:06:29.900Z,20992
2017-06-03T09:07:15.324Z,20512
2017-06-03T09:08:15.350Z,20384
2017-06-03T09:09:15.082Z,19392
2017-06-03T09:10:15.419Z,18752
2017-06-03T09:11:15.456Z,21216
2017-06-03T09:12:15.194Z,21024
2017-06-03T09:13:15.253Z,19392
2017-06-03T09:14:15.254Z,17336
2017-06-03T09:15:15.290Z,17952
2017-06-03T09:16:15.632Z,15256
2017-06-03T09:17:15.664Z,14960
2017-06-03T09:18:15.699Z,15748
2017-06-03T09:20:15.768Z,15964
2017-06-03T09:21:15.804Z,16264
2017-06-03T09:22:30.454Z,19936
2017-06-03T09:23:15.871Z,19744
2017-06-03T09:24:15.904Z,21792
2017-06-03T09:25:15.937Z,22176
2017-06-03T09:26:15.970Z,17984
2017-06-03T09:27:16.007Z,17472
2017-06-03T09:28:15.785Z,16332
2017-06-03T09:29:16.074Z,15384
2017-06-03T09:30:30.728Z,14108
2017-06-03T09:31:16.148Z,13392
2017-06-03T09:32:30.793Z,12332
2017-06-03T09:33:16.210Z,11680
2017-06-03T09:34:15.946Z,10980
2017-06-03T09:35:16.278Z,10332
2017-06-03T09:36:16.006Z,9768
2017-06-03T09:37:30.966Z,9136
2017-06-03T09:38:16.379Z,8700
2017-06-03T09:40:16.495Z,7724
2017-06-03T09:41:16.178Z,7304
2017-06-03T09:42:16.515Z,6956
2017-06-03T09:43:16.543Z,6716
2017-06-03T09:44:30.898Z,6524
2017-06-03T09:45:16.614Z,6436
2017-06-03T09:47:16.373Z,6040
2017-06-03T09:48:16.401Z,5772
2017-06-03T09:49:31.360Z,5356
2017-06-03T09:51:16.810Z,4656
2017-06-03T09:52:16.837Z,4296
2017-06-03T09:53:16.564Z,3980
2017-06-03T09:54:16.905Z,3716
2017-06-03T09:55:16.627Z,3556
2017-06-03T09:56:16.968Z,3444
2017-06-03T09:57:16.998Z,3380
2017-06-03T09:58:17.076Z,3380
2017-06-03T09:59:17.086Z,3368
2017-06-03T10:00:31.454Z,3316
2017-06-03T10:01:17.121Z,3288
2017-06-03T10:02:31.773Z,3260
2017-06-03T10:03:16.575Z,3256
2017-06-03T10:04:16.916Z,3256
2017-06-03T10:05:17.247Z,3284
2017-06-03T10:06:16.974Z,3376
2017-06-03T10:07:17.309Z,3492
2017-06-03T10:09:31.987Z,3744
2017-06-03T10:10:17.402Z,3824
2017-06-03T10:11:17.434Z,3960
2017-06-03T10:12:17.464Z,4144
2017-06-03T10:13:16.892Z,4376
2017-06-03T10:14:17.553Z,4652
2017-06-03T10:15:32.231Z,5160
2017-06-03T10:16:17.586Z,5484
2017-06-03T10:17:32.235Z,5808
2017-06-03T10:18:32.265Z,6032
2017-06-03T10:19:32.294Z,6240
2017-06-03T10:20:17.811Z,6360
2017-06-03T10:22:32.145Z,6788
2017-06-03T10:23:17.849Z,6960
2017-06-03T10:24:17.828Z,7264
2017-06-03T10:25:32.478Z,7532
2017-06-03T10:26:17.888Z,7640
2017-06-03T10:27:17.921Z,7784
2017-06-03T10:28:32.271Z,8016
2017-06-03T10:29:17.980Z,8120
2017-06-03T10:30:32.635Z,8208
2017-06-03T10:32:17.786Z,8392
2017-06-03T10:33:17.797Z,8436
2017-06-03T10:34:17.855Z,8472
2017-06-03T10:35:32.784Z,8420
2017-06-03T10:36:17.891Z,8384
2017-06-03T10:37:18.225Z,8400
2017-06-03T10:38:32.875Z,8432
2017-06-03T10:39:17.979Z,8424
2017-06-03T10:40:18.010Z,8372
2017-06-03T10:41:32.964Z,8264
2017-06-03T10:42:18.074Z,8172
2017-06-03T10:43:18.409Z,8012
2017-06-03T10:44:18.137Z,7820
2017-06-03T10:45:18.183Z,7652
2017-06-03T10:46:33.121Z,7464
2017-06-03T10:47:18.535Z,7332
2017-06-03T10:48:18.558Z,7124
2017-06-03T10:49:18.590Z,6900
2017-06-03T10:50:33.240Z,6620
2017-06-03T10:51:18.653Z,6456
2017-06-03T10:52:18.680Z,6240
2017-06-03T10:53:18.407Z,6020
2017-06-03T10:54:18.738Z,5800
2017-06-03T10:55:18.771Z,5628
2017-06-03T10:56:18.802Z,5500
2017-06-03T10:57:33.454Z,5400
2017-06-03T10:59:18.890Z,5352
2017-06-03T11:00:18.952Z,5352
2017-06-03T11:01:18.952Z,5368
2017-06-03T11:02:18.984Z,5388
2017-06-03T11:03:19.012Z,5400
2017-06-03T11:04:19.043Z,5372
2017-06-03T11:05:19.127Z,5316
2017-06-03T11:06:19.107Z,5256
2017-06-03T11:07:19.135Z,5184
2017-06-03T11:09:19.200Z,5072
2017-06-03T11:11:18.949Z,4976
2017-06-03T11:12:33.909Z,4896
2017-06-03T11:13:19.010Z,4848
2017-06-03T11:14:19.041Z,4852
2017-06-03T11:15:19.374Z,4916
2017-06-03T11:16:19.405Z,4960
2017-06-03T11:17:19.435Z,4992
2017-06-03T11:18:19.463Z,5008
2017-06-03T11:19:19.493Z,5056
2017-06-03T11:20:19.674Z,5104
2017-06-03T11:21:19.550Z,5124
2017-06-03T11:22:19.610Z,5120
2017-06-03T11:23:19.307Z,5052
2017-06-03T11:24:34.259Z,4964
2017-06-03T11:25:19.666Z,4940
2017-06-03T11:26:19.695Z,4876
2017-06-03T11:28:19.754Z,4448
2017-06-03T11:29:19.782Z,4196
2017-06-03T11:30:19.815Z,4036
2017-06-03T11:31:19.844Z,3932
2017-06-03T11:32:19.877Z,3852
2017-06-03T11:33:20.257Z,3796
2017-06-03T11:34:19.930Z,3792
2017-06-03T11:35:19.962Z,3776
2017-06-03T11:36:19.685Z,3720
2017-06-03T11:37:20.038Z,3692
2017-06-03T11:38:34.665Z,3652
2017-06-03T11:39:20.084Z,3628
2017-06-03T11:40:20.108Z,3632
2017-06-03T11:41:20.135Z,3620
2017-06-03T11:42:20.164Z,3620
2017-06-03T11:43:20.189Z,3640
2017-06-03T11:44:34.838Z,3676
2017-06-03T11:45:20.248Z,3736
2017-06-03T11:46:20.288Z,3828
2017-06-03T11:47:20.305Z,3896
2017-06-03T11:48:20.335Z,4012
2017-06-03T11:49:20.362Z,4132
2017-06-03T11:50:20.389Z,4236
2017-06-03T11:51:20.422Z,4368
2017-06-03T11:52:20.143Z,4480
2017-06-03T11:53:35.093Z,4616
2017-06-03T11:54:20.508Z,4760
2017-06-03T11:55:35.148Z,5052
2017-06-03T11:56:20.255Z,5216
2017-06-03T11:58:35.235Z,5440
2017-06-03T11:59:20.044Z,5460
2017-06-03T12:00:35.037Z,5312
2017-06-03T12:01:20.452Z,5200
2017-06-03T12:02:20.137Z,5032
2017-06-03T12:03:20.455Z,4856
2017-06-03T12:04:20.482Z,4756
2017-06-03T12:05:20.815Z,4736
2017-06-03T12:06:20.540Z,4728
2017-06-03T12:07:34.883Z,4768
2017-06-03T12:08:20.897Z,4804
2017-06-03T12:09:35.241Z,4876
2017-06-03T12:10:35.572Z,4992
2017-06-03T12:11:20.679Z,5052
2017-06-03T12:12:21.011Z,5108
2017-06-03T12:13:21.036Z,5220
2017-06-03T12:14:21.074Z,5272
2017-06-03T12:15:21.232Z,5468
2017-06-03T12:16:35.737Z,5620
2017-06-03T12:17:21.150Z,5668
2017-06-03T12:18:21.178Z,5800
2017-06-03T12:19:21.209Z,5984
2017-06-03T12:20:21.284Z,5948
2017-06-03T12:21:20.959Z,5904
2017-06-03T12:22:21.292Z,6048
2017-06-03T12:23:21.317Z,6260
2017-06-03T12:24:21.346Z,6312
2017-06-03T12:25:21.372Z,6216
2017-06-03T12:26:21.401Z,6304
2017-06-03T12:27:36.103Z,6332
2017-06-03T12:28:21.459Z,6380
2017-06-03T12:29:35.800Z,6416
2017-06-03T12:30:21.566Z,6364
2017-06-03T12:31:21.545Z,6384
2017-06-03T12:32:35.887Z,6328
2017-06-03T12:34:21.626Z,6256
2017-06-03T12:35:21.701Z,6064
2017-06-03T12:36:21.684Z,5776
2017-06-03T12:37:21.710Z,5492
2017-06-03T12:38:21.739Z,5188
2017-06-03T12:39:21.763Z,4900
2017-06-03T12:40:21.792Z,4580
2017-06-03T12:41:21.822Z,4332
2017-06-03T12:42:36.464Z,4152
2017-06-03T12:43:21.876Z,4060
2017-06-03T12:44:21.900Z,3972
2017-06-03T12:45:21.985Z,3888
2017-06-03T12:46:21.963Z,3876
2017-06-03T12:47:36.904Z,3916
2017-06-03T12:50:22.076Z,4044
2017-06-03T12:51:22.097Z,4108
2017-06-03T12:52:22.128Z,4164
2017-06-03T12:53:22.201Z,4272
2017-06-03T12:54:22.178Z,4388
2017-06-03T12:55:22.205Z,4440
2017-06-03T12:56:22.234Z,4448
2017-06-03T12:57:36.880Z,4432
2017-06-03T12:58:22.289Z,4444
2017-06-03T12:59:36.935Z,4448
2017-06-03T13:00:22.343Z,4424
2017-06-03T13:03:22.176Z,4408
2017-06-03T13:04:22.468Z,4508
2017-06-03T13:05:22.494Z,4564
2017-06-03T13:06:22.527Z,4644
2017-06-03T13:07:22.247Z,4756
2017-06-03T13:08:22.261Z,4896
2017-06-03T13:09:22.287Z,5040
2017-06-03T13:10:22.620Z,5216
2017-06-03T13:11:22.705Z,5488
2017-06-03T13:12:37.293Z,5868
2017-06-03T13:13:37.319Z,6136
2017-06-03T13:14:22.755Z,6256
2017-06-03T13:15:22.955Z,6224
2017-06-03T13:16:37.401Z,5952
2017-06-03T13:17:22.507Z,5704
2017-06-03T13:18:22.534Z,5372
2017-06-03T13:19:37.482Z,5008
2017-06-03T13:20:22.288Z,4752
2017-06-03T13:22:22.948Z,4056
2017-06-03T13:23:22.975Z,3748
2017-06-03T13:24:23.038Z,3476
2017-06-03T13:25:23.031Z,3280
2017-06-03T13:26:23.056Z,3148
2017-06-03T13:27:23.084Z,3052
2017-06-03T13:28:23.112Z,2924
2017-06-03T13:29:23.141Z,2792
2017-06-03T13:30:23.168Z,2700
2017-06-03T13:31:23.193Z,2636
2017-06-03T13:32:23.228Z,2612
2017-06-03T13:34:23.275Z,2816
2017-06-03T13:35:37.924Z,2908
2017-06-03T13:36:23.336Z,2960
2017-06-03T13:38:23.080Z,3236
2017-06-03T13:39:23.412Z,3324
2017-06-03T13:40:23.441Z,3260
2017-06-03T13:41:23.468Z,3268
2017-06-03T13:42:23.495Z,3184
2017-06-03T13:43:23.520Z,3088
2017-06-03T13:44:38.195Z,2928
2017-06-03T13:45:23.272Z,2824
2017-06-03T13:46:23.601Z,2728
2017-06-03T13:47:23.630Z,2672
2017-06-03T13:48:23.656Z,2636
2017-06-03T13:49:23.683Z,2580
2017-06-03T13:51:38.355Z,2448
2017-06-03T13:52:23.464Z,2420
2017-06-03T13:53:23.491Z,2392
2017-06-03T13:54:23.818Z,2336
2017-06-03T13:55:23.849Z,2272
2017-06-03T13:56:23.873Z,2212
2017-06-03T13:57:38.521Z,2244
2017-06-03T13:58:23.978Z,2280
2017-06-03T13:59:23.956Z,2380
2017-06-03T14:00:38.648Z,2604
2017-06-03T14:01:23.759Z,2772
2017-06-03T14:02:38.651Z,3052
2017-06-03T14:03:24.065Z,3264
2017-06-03T14:04:38.708Z,3644
2017-06-03T14:05:24.215Z,3852
2017-06-03T14:06:24.148Z,4104
2017-06-03T14:07:38.837Z,4340
2017-06-03T14:08:24.203Z,4600
2017-06-03T14:09:24.247Z,4824
2017-06-03T14:10:24.248Z,5168
2017-06-03T14:11:24.276Z,5480
2017-06-03T14:12:24.307Z,5728
2017-06-03T14:13:24.381Z,5924
2017-06-03T14:14:24.358Z,6068
2017-06-03T14:15:39.004Z,6060
2017-06-03T14:16:39.032Z,5860
2017-06-03T14:17:24.437Z,5784
2017-06-03T14:18:24.466Z,5752
2017-06-03T14:19:24.495Z,5624
2017-06-03T14:20:39.187Z,5312
2017-06-03T14:21:24.557Z,5080
2017-06-03T14:22:39.195Z,4736
2017-06-03T14:23:24.609Z,4580
2017-06-03T14:24:24.624Z,4408